Time;durP1;ratioP1;P1;durP2;ratioP2;P2;SDS_P1;SDS_P2;PMS_P1;PMS_P2;Temp;Humidity;BMP_temperature;BMP_pressure;BME280_temperature;BME280_humidity;BME280_pressure;Samples;Min_cycle;Max_cycle;Signal;HPM_P1;HPM_P2
2023/05/27 00:01:59;;;;;;;8.40;3.40;;;;;;;14.25;59.43;98785.47;5071661;28;20213;-80
2023/05/27 00:04:25;;;;;;;6.60;3.47;;;;;;;14.22;59.86;98788.38;5071251;28;20231;-80
2023/05/27 00:06:52;;;;;;;6.83;3.27;;;;;;;14.10;61.04;98796.34;5071669;28;20551;-80
2023/05/27 00:09:18;;;;;;;7.07;3.13;;;;;;;13.99;62.18;98801.63;5070500;28;20231;-80
2023/05/27 00:11:46;;;;;;;4.00;2.73;;;;;;;13.89;62.32;98806.75;5071291;28;20556;-80
2023/05/27 00:14:13;;;;;;;6.90;3.33;;;;;;;13.91;62.49;98807.47;5071392;28;20221;-80
2023/05/27 00:16:39;;;;;;;6.40;2.93;;;;;;;13.86;62.84;98816.72;5071181;28;20207;-80
2023/05/27 00:19:06;;;;;;;7.97;3.37;;;;;;;13.92;61.73;98806.50;5071044;28;20230;-80
2023/05/27 00:21:32;;;;;;;8.97;3.60;;;;;;;14.07;61.09;98793.94;5070956;28;20560;-80
2023/05/27 00:23:59;;;;;;;6.80;3.13;;;;;;;14.09;60.84;98795.53;5071430;28;20558;-80
2023/05/27 00:26:25;;;;;;;6.20;3.30;;;;;;;14.28;59.97;98798.56;5071239;28;20231;-80
2023/05/27 00:28:53;;;;;;;6.63;3.10;;;;;;;14.33;59.76;98795.56;5071121;28;20238;-80
2023/05/27 00:31:20;;;;;;;7.17;3.53;;;;;;;14.35;60.16;98799.81;5070225;28;20219;-80
2023/05/27 00:33:46;;;;;;;10.53;3.93;;;;;;;14.44;59.06;98792.94;5070901;28;20249;-80
2023/05/27 00:36:13;;;;;;;9.10;3.20;;;;;;;14.51;59.03;98786.22;5071469;28;20230;-80
2023/05/27 00:38:39;;;;;;;7.13;3.30;;;;;;;14.60;58.42;98782.88;5075320;28;20581;-80
2023/05/27 00:41:05;;;;;;;7.60;3.27;;;;;;;14.59;58.33;98783.81;5074527;28;20211;-80
2023/05/27 00:43:32;;;;;;;8.67;3.17;;;;;;;14.53;59.39;98789.59;5075287;28;20244;-80
2023/05/27 00:46:00;;;;;;;7.37;3.17;;;;;;;14.40;59.40;98786.16;5074932;28;20231;-80
2023/05/27 00:48:26;;;;;;;5.93;2.87;;;;;;;14.33;59.75;98790.22;5075209;28;20230;-80
2023/05/27 00:50:53;;;;;;;5.60;3.07;;;;;;;14.24;60.11;98785.59;5074723;28;20207;-80
2023/05/27 00:53:21;;;;;;;6.80;3.30;;;;;;;14.26;59.64;98789.84;5074866;28;20210;-80
2023/05/27 00:55:47;;;;;;;9.50;3.30;;;;;;;14.27;59.63;98793.34;5075125;28;20208;-80
2023/05/27 00:58:14;;;;;;;8.40;3.43;;;;;;;14.15;60.27;98781.78;5074838;28;20282;-80
2023/05/27 01:00:41;;;;;;;6.70;3.20;;;;;;;14.03;60.34;98781.81;5073260;28;20580;-80
2023/05/27 01:03:09;;;;;;;10.30;3.57;;;;;;;14.10;60.45;98783.06;5074697;28;20325;-80
2023/05/27 01:05:36;;;;;;;8.00;3.67;;;;;;;14.10;60.42;98777.75;5075029;28;20238;-80
2023/05/27 01:08:16;;;;;;;9.30;3.93;;;;;;;14.08;60.48;98779.66;5074802;28;20215;-80
2023/05/27 01:10:48;;;;;;;6.70;2.93;;;;;;;13.87;61.23;98776.75;5073739;28;20207;-80
2023/05/27 01:13:19;;;;;;;7.73;3.23;;;;;;;13.82;61.84;98783.38;5074547;28;20261;-80
2023/05/27 01:15:47;;;;;;;6.70;3.17;;;;;;;13.69;62.06;98793.19;5074808;28;20561;-80
2023/05/27 01:18:18;;;;;;;10.97;3.90;;;;;;;13.62;63.36;98797.25;5074632;28;20202;-80
2023/05/27 01:20:48;;;;;;;11.73;3.73;;;;;;;13.65;63.43;98799.66;5073878;28;20207;-80
2023/05/27 01:23:16;;;;;;;9.73;2.90;;;;;;;13.65;62.87;98792.56;5074713;28;20208;-80
2023/05/27 01:25:43;;;;;;;7.07;3.27;;;;;;;13.73;62.54;98784.03;5074064;28;20859;-80
2023/05/27 01:28:09;;;;;;;9.43;3.77;;;;;;;13.68;62.97;98788.84;5074575;28;20222;-80
2023/05/27 01:30:36;;;;;;;12.93;3.97;;;;;;;13.71;62.82;98785.94;5073373;28;20214;-80
2023/05/27 01:33:08;;;;;;;7.23;3.40;;;;;;;13.68;63.10;98791.50;5074112;28;20207;-80
2023/05/27 01:35:41;;;;;;;7.60;3.30;;;;;;;13.71;63.01;98780.63;5074057;28;20210;-80
2023/05/27 01:38:10;;;;;;;9.80;3.63;;;;;;;13.61;63.42;98779.56;5074266;28;20234;-80
2023/05/27 01:40:39;;;;;;;9.07;3.80;;;;;;;13.53;63.97;98781.94;5073562;28;20211;-80
2023/05/27 01:43:07;;;;;;;11.07;3.73;;;;;;;13.50;64.25;98790.13;5074232;28;20208;-79
2023/05/27 01:45:34;;;;;;;11.00;3.33;;;;;;;13.47;64.57;98790.34;5074203;28;20231;-79
2023/05/27 01:48:01;;;;;;;9.57;3.70;;;;;;;13.36;65.05;98787.56;5073644;28;20220;-80
2023/05/27 01:50:30;;;;;;;8.90;3.30;;;;;;;13.35;65.06;98788.53;5072994;28;20211;-80
2023/05/27 01:52:56;;;;;;;11.70;3.63;;;;;;;13.32;65.59;98788.78;5073704;28;20214;-79
2023/05/27 01:55:23;;;;;;;11.10;3.57;;;;;;;13.17;66.28;98789.81;5073749;28;20677;-80
2023/05/27 01:57:51;;;;;;;11.17;4.30;;;;;;;13.16;66.00;98793.44;5073883;28;20211;-80
2023/05/27 02:00:18;;;;;;;8.20;3.60;;;;;;;13.18;66.39;98796.81;5073017;28;20261;-80
2023/05/27 02:02:45;;;;;;;6.53;2.90;;;;;;;13.23;66.32;98790.25;5074022;28;20563;-80
2023/05/27 02:05:11;;;;;;;10.23;3.90;;;;;;;13.29;66.27;98788.97;5073376;28;20250;-80
2023/05/27 02:07:38;;;;;;;7.60;3.40;;;;;;;13.27;66.17;98782.94;5073888;28;20214;-80
2023/05/27 02:10:05;;;;;;;7.70;4.07;;;;;;;13.26;66.22;98778.59;5073073;28;20281;-80
2023/05/27 02:12:32;;;;;;;10.20;3.90;;;;;;;13.23;66.88;98784.09;5073712;28;20244;-80
2023/05/27 02:15:00;;;;;;;9.83;3.50;;;;;;;13.13;66.95;98783.00;5073499;28;20208;-80
2023/05/27 02:17:27;;;;;;;12.30;4.27;;;;;;;13.14;66.78;98782.09;5073801;28;20301;-79
2023/05/27 02:19:54;;;;;;;8.90;3.50;;;;;;;13.09;67.63;98778.91;5072668;28;20229;-79
2023/05/27 02:22:21;;;;;;;9.70;3.37;;;;;;;13.10;67.12;98777.94;5073877;28;20237;-79
2023/05/27 02:24:47;;;;;;;7.03;3.40;;;;;;;13.02;67.56;98782.94;5073720;28;20208;-80
2023/05/27 02:27:14;;;;;;;8.37;3.40;;;;;;;13.07;67.83;98780.81;5073453;28;20202;-80
2023/05/27 02:29:40;;;;;;;6.57;3.33;;;;;;;12.94;68.04;98786.06;5072488;28;20261;-79
2023/05/27 02:32:08;;;;;;;10.60;3.50;;;;;;;12.98;68.44;98789.38;5072894;28;20220;-80
2023/05/27 02:34:36;;;;;;;7.60;3.23;;;;;;;12.85;69.17;98794.63;5073202;28;20656;-80
2023/05/27 02:37:04;;;;;;;8.37;3.43;;;;;;;12.75;69.76;98792.72;5073626;28;20552;-80
2023/05/27 02:39:31;;;;;;;10.90;4.00;;;;;;;12.80;69.95;98795.91;5072455;28;20224;-80
2023/05/27 02:41:57;;;;;;;8.50;3.03;;;;;;;12.70;70.88;98793.03;5073315;28;20588;-80
2023/05/27 02:44:23;;;;;;;11.53;3.63;;;;;;;12.62;70.96;98792.72;5073155;28;20591;-79
2023/05/27 02:46:50;;;;;;;12.43;3.93;;;;;;;12.58;71.31;98795.63;5072815;28;20242;-80
2023/05/27 02:49:18;;;;;;;10.73;3.80;;;;;;;12.54;71.81;98795.00;5072406;28;20228;-80
2023/05/27 02:51:44;;;;;;;7.83;3.40;;;;;;;12.41;72.95;98795.94;5072962;28;20293;-80
2023/05/27 02:54:11;;;;;;;8.87;3.80;;;;;;;12.42;72.69;98794.97;5072870;28;20612;-80
2023/05/27 02:56:37;;;;;;;10.53;3.80;;;;;;;12.43;72.43;98792.25;5072464;28;20579;-80
2023/05/27 02:59:04;;;;;;;10.93;3.77;;;;;;;12.46;72.62;98793.84;5071961;28;20230;-80
2023/05/27 03:01:30;;;;;;;7.53;3.67;;;;;;;12.45;72.19;98795.63;5071677;28;20207;-80
2023/05/27 03:03:56;;;;;;;8.17;3.50;;;;;;;12.48;72.04;98784.78;5072296;28;20225;-81
2023/05/27 03:06:24;;;;;;;11.47;3.53;;;;;;;12.50;71.77;98782.06;5072200;28;20237;-80
2023/05/27 03:08:51;;;;;;;11.27;3.57;;;;;;;12.56;71.72;98792.25;5072449;28;20230;-80
2023/05/27 03:11:17;;;;;;;11.07;4.17;;;;;;;12.54;72.27;98783.56;5071792;28;20206;-80
2023/05/27 03:13:44;;;;;;;9.73;3.77;;;;;;;12.61;71.65;98779.53;5072448;28;20205;-80
2023/05/27 03:16:12;;;;;;;10.23;3.90;;;;;;;12.56;71.51;98782.50;5072241;28;20201;-80
2023/05/27 03:18:39;;;;;;;10.80;3.40;;;;;;;12.57;71.88;98783.34;5072638;28;20229;-80
2023/05/27 03:21:06;;;;;;;12.43;3.83;;;;;;;12.49;72.40;98789.19;5071435;28;20268;-80
2023/05/27 03:23:33;;;;;;;7.90;3.90;;;;;;;12.42;72.75;98789.69;5072200;28;20212;-80
2023/05/27 03:26:00;;;;;;;9.20;3.90;;;;;;;12.42;72.57;98801.13;5072046;28;20238;-80
2023/05/27 03:28:26;;;;;;;8.80;3.50;;;;;;;12.49;72.48;98793.63;5071783;28;20237;-79
2023/05/27 03:30:55;;;;;;;10.90;3.50;;;;;;;12.52;72.34;98796.06;5070973;28;20752;-80
2023/05/27 03:33:22;;;;;;;11.03;3.60;;;;;;;12.43;72.54;98791.38;5072072;28;20234;-80
2023/05/27 03:35:49;;;;;;;12.17;3.70;;;;;;;12.38;73.05;98788.16;5071807;28;20318;-80
2023/05/27 03:38:15;;;;;;;11.30;3.77;;;;;;;12.36;73.65;98798.03;5071577;28;20215;-80
2023/05/27 03:40:43;;;;;;;9.23;4.53;;;;;;;12.35;73.76;98793.69;5071070;28;20720;-80
2023/05/27 03:43:10;;;;;;;9.27;3.60;;;;;;;12.24;73.89;98794.38;5071586;28;20220;-80
2023/05/27 03:45:36;;;;;;;11.03;4.50;;;;;;;12.17;74.55;98800.19;5071755;28;20725;-80
2023/05/27 03:48:03;;;;;;;9.57;4.00;;;;;;;12.23;74.99;98794.50;5071848;28;20226;-80
2023/05/27 03:50:29;;;;;;;11.30;3.73;;;;;;;12.10;75.79;98801.53;5071458;28;20211;-80
2023/05/27 03:52:56;;;;;;;8.47;3.33;;;;;;;12.14;75.72;98801.22;5071872;28;20213;-80
2023/05/27 03:55:22;;;;;;;9.33;4.00;;;;;;;12.22;75.01;98796.28;5071767;28;20217;-80
2023/05/27 03:57:50;;;;;;;10.27;3.70;;;;;;;12.19;74.93;98792.97;5071683;28;20722;-80
2023/05/27 04:00:18;;;;;;;10.73;4.00;;;;;;;12.18;75.12;98791.28;5070911;28;20240;-80
2023/05/27 04:02:44;;;;;;;9.57;3.90;;;;;;;12.08;75.63;98790.16;5071786;28;20226;-80
2023/05/27 04:05:11;;;;;;;8.23;3.60;;;;;;;12.10;75.80;98785.66;5071272;28;20299;-80
2023/05/27 04:07:38;;;;;;;7.50;3.80;;;;;;;12.15;75.44;98792.34;5071376;28;20238;-80
2023/05/27 04:10:05;;;;;;;9.37;3.63;;;;;;;12.16;75.35;98783.44;5070538;28;20330;-80
2023/05/27 04:12:32;;;;;;;11.63;4.57;;;;;;;12.19;75.58;98790.31;5070257;28;20648;-80
2023/05/27 04:15:00;;;;;;;12.07;4.00;;;;;;;12.21;75.10;98791.94;5071456;28;20217;-80
2023/05/27 04:17:26;;;;;;;9.03;3.77;;;;;;;12.17;75.82;98789.59;5071272;28;20205;-80
2023/05/27 04:19:53;;;;;;;10.40;4.03;;;;;;;12.26;75.91;98794.28;5070389;28;20235;-80
2023/05/27 04:22:19;;;;;;;9.33;4.10;;;;;;;12.35;74.96;98799.00;5071309;28;20211;-80
2023/05/27 04:24:46;;;;;;;9.73;3.60;;;;;;;12.49;74.29;98798.91;5071186;28;20222;-80
2023/05/27 04:27:16;;;;;;;10.27;4.00;;;;;;;12.36;75.13;98792.72;5071451;28;20330;-80
2023/05/27 04:29:45;;;;;;;8.03;3.40;;;;;;;12.37;75.38;98797.06;5070178;28;20242;-80
2023/05/27 04:32:13;;;;;;;7.70;3.70;;;;;;;12.39;75.71;98797.81;5071243;28;20617;-80
2023/05/27 04:34:41;;;;;;;13.40;3.93;;;;;;;12.46;75.31;98796.47;5071307;28;20210;-81
2023/05/27 04:37:09;;;;;;;14.10;4.23;;;;;;;12.50;75.52;98798.81;5071061;28;20683;-80
2023/05/27 04:39:36;;;;;;;13.37;4.30;;;;;;;12.61;74.92;98793.66;5070433;28;20238;-80
2023/05/27 04:42:02;;;;;;;9.33;3.77;;;;;;;12.67;74.60;98795.03;5071482;28;20221;-80
2023/05/27 04:44:29;;;;;;;8.37;3.93;;;;;;;12.67;75.17;98805.66;5070933;28;20217;-80
2023/05/27 04:46:55;;;;;;;10.03;3.70;;;;;;;12.73;74.48;98791.97;5071221;28;20334;-80
2023/05/27 04:49:23;;;;;;;9.73;4.13;;;;;;;12.72;74.50;98788.47;5070371;28;20229;-80
2023/05/27 04:51:50;;;;;;;11.27;4.00;;;;;;;12.81;73.82;98784.34;5071084;28;20218;-80
2023/05/27 04:54:16;;;;;;;7.30;3.50;;;;;;;12.87;74.15;98786.59;5070929;28;20218;-80
2023/05/27 04:56:43;;;;;;;9.77;3.60;;;;;;;12.91;73.77;98780.13;5071088;28;20215;-80
2023/05/27 04:59:16;;;;;;;12.63;3.73;;;;;;;12.98;72.56;98778.78;5070121;28;20273;-80
2023/05/27 05:02:09;;;;;;;10.57;3.83;;;;;;;13.06;73.09;98787.06;5070928;28;20254;-80
2023/05/27 05:04:37;;;;;;;9.67;3.77;;;;;;;13.13;73.04;98793.63;5070803;28;20210;-80
2023/05/27 05:07:04;;;;;;;11.27;4.10;;;;;;;13.21;71.71;98778.03;5071007;28;20230;-80
2023/05/27 05:09:31;;;;;;;12.77;4.20;;;;;;;13.37;71.33;98770.69;5069879;28;20291;-80
2023/05/27 05:11:57;;;;;;;8.20;3.47;;;;;;;13.62;69.94;98766.19;5070590;28;20216;-80
2023/05/27 05:14:23;;;;;;;11.47;4.10;;;;;;;13.96;68.32;98761.97;5070562;28;20210;-80
2023/05/27 05:16:50;;;;;;;11.20;3.80;;;;;;;14.22;67.51;98755.59;5070476;28;20210;-80
2023/05/27 05:19:16;;;;;;;8.63;3.80;;;;;;;14.44;66.32;98758.38;5069925;28;20750;-80
2023/05/27 05:21:44;;;;;;;7.83;3.73;;;;;;;14.64;64.81;98752.41;5070561;28;20226;-80
2023/05/27 05:24:11;;;;;;;10.50;3.73;;;;;;;14.86;64.80;98752.47;5073934;28;20211;-82
2023/05/27 05:26:37;;;;;;;9.33;4.23;;;;;;;15.06;63.01;98735.81;5074352;28;20228;-79
2023/05/27 05:29:04;;;;;;;15.27;4.10;;;;;;;15.26;62.16;98735.09;5073942;28;20265;-79
2023/05/27 05:31:30;;;;;;;11.53;4.17;;;;;;;15.56;62.15;98738.03;5073464;28;20215;-81
2023/05/27 05:33:57;;;;;;;11.80;3.90;;;;;;;15.71;60.92;98731.47;5074367;28;20214;-79
2023/05/27 05:36:24;;;;;;;10.40;4.07;;;;;;;15.67;60.27;98733.56;5074343;28;20211;-79
2023/05/27 05:38:51;;;;;;;12.80;3.80;;;;;;;15.95;60.90;98734.84;5074086;28;20368;-79
2023/05/27 05:41:18;;;;;;;9.20;3.67;;;;;;;16.15;59.03;98727.75;5073387;28;20222;-80
2023/05/27 05:43:44;;;;;;;10.87;3.93;;;;;;;16.17;58.73;98731.16;5074667;28;20204;-80
2023/05/27 05:46:11;;;;;;;8.60;3.53;;;;;;;16.23;57.92;98729.78;5073834;28;20211;-80
2023/05/27 05:48:37;;;;;;;9.97;3.90;;;;;;;16.40;58.28;98730.09;5073502;28;20729;-80
2023/05/27 05:51:04;;;;;;;8.10;3.30;;;;;;;16.56;58.38;98733.19;5072962;28;20208;-81
2023/05/27 05:53:31;;;;;;;8.67;3.43;;;;;;;16.54;57.60;98727.16;5073618;28;20231;-80
2023/05/27 05:55:59;;;;;;;9.37;3.87;;;;;;;16.40;58.09;98724.75;5073561;28;20678;-80
2023/05/27 05:58:26;;;;;;;9.93;3.40;;;;;;;16.54;58.39;98727.16;5073382;28;20643;-80
2023/05/27 06:00:52;;;;;;;12.10;3.80;;;;;;;16.74;58.03;98730.78;5072697;28;20223;-80
2023/05/27 06:03:19;;;;;;;11.83;3.93;;;;;;;16.95;58.01;98735.16;5073027;28;20222;-80
2023/05/27 06:05:46;;;;;;;7.70;3.10;;;;;;;17.20;56.65;98710.69;5073463;28;20700;-81
2023/05/27 06:08:12;;;;;;;9.70;3.60;;;;;;;17.32;56.20;98704.28;5073385;28;20231;-81
2023/05/27 06:10:39;;;;;;;9.63;3.53;;;;;;;17.55;56.02;98710.34;5072565;28;20211;-81
2023/05/27 06:13:10;;;;;;;9.67;3.80;;;;;;;17.79;55.67;98706.31;5073288;28;20233;-79
2023/05/27 06:15:37;;;;;;;7.80;3.40;;;;;;;17.97;54.81;98699.31;5073215;28;20219;-79
2023/05/27 06:18:04;;;;;;;8.60;3.37;;;;;;;18.11;55.22;98712.28;5073413;28;20226;-79
2023/05/27 06:20:31;;;;;;;10.17;3.70;;;;;;;18.11;55.25;98712.28;5072450;28;20211;-79
2023/05/27 06:22:57;;;;;;;9.60;4.03;;;;;;;18.19;54.67;98709.78;5073052;28;20674;-78
2023/05/27 06:25:24;;;;;;;10.03;3.90;;;;;;;18.18;54.44;98708.09;5073361;28;20204;-78
2023/05/27 06:27:50;;;;;;;11.33;3.67;;;;;;;17.98;53.27;98687.63;5072444;28;20230;-75
2023/05/27 06:30:18;;;;;;;7.37;3.90;;;;;;;18.08;53.90;98691.16;5071549;28;20258;-75
2023/05/27 06:32:45;;;;;;;6.80;3.60;;;;;;;18.17;55.40;98721.59;5072719;28;20685;-75
2023/05/27 06:35:11;;;;;;;7.83;3.23;;;;;;;18.45;56.15;98728.81;5071311;28;20217;-75
2023/05/27 06:37:37;;;;;;;5.93;3.30;;;;;;;18.50;52.63;98683.75;5068833;28;20211;-75
2023/05/27 06:40:05;;;;;;;9.73;3.70;;;;;;;18.48;52.45;98681.19;5071698;28;20231;-76
2023/05/27 06:42:31;;;;;;;10.30;4.03;;;;;;;18.59;54.11;98702.47;5072214;28;20230;-76
2023/05/27 06:44:58;;;;;;;7.90;3.57;;;;;;;18.75;53.59;98702.75;5071514;28;20207;-75
2023/05/27 06:47:26;;;;;;;8.43;3.63;;;;;;;18.89;53.41;98704.16;5072542;28;20558;-75
2023/05/27 06:49:52;;;;;;;9.40;3.77;;;;;;;18.96;52.06;98684.66;5071755;28;20306;-76
2023/05/27 06:52:19;;;;;;;10.17;3.50;;;;;;;18.92;52.14;98682.41;5072427;28;20788;-75
2023/05/27 06:54:46;;;;;;;6.80;3.67;;;;;;;18.58;51.26;98671.34;5072261;28;20240;-75
2023/05/27 06:57:12;;;;;;;10.13;3.70;;;;;;;18.38;53.74;98696.44;5072513;28;20207;-76
2023/05/27 06:59:39;;;;;;;8.67;3.80;;;;;;;18.15;53.96;98702.16;5071644;28;20232;-77
2023/05/27 07:02:06;;;;;;;7.77;3.40;;;;;;;17.92;56.09;98725.63;5072466;28;20684;-80
2023/05/27 07:04:34;;;;;;;8.63;3.27;;;;;;;17.69;57.14;98732.16;5072808;28;20309;-83
2023/05/27 07:07:01;;;;;;;9.43;3.67;;;;;;;17.49;56.65;98725.06;5072792;28;20280;-82
2023/05/27 07:09:27;;;;;;;9.73;4.20;;;;;;;17.46;57.49;98730.69;5072267;28;20239;-82
2023/05/27 07:11:53;;;;;;;7.50;3.60;;;;;;;17.51;57.18;98728.47;5072634;28;20204;-83
2023/05/27 07:14:20;;;;;;;6.50;3.67;;;;;;;17.37;57.05;98731.47;5072601;28;20203;-82
2023/05/27 07:16:47;;;;;;;8.27;4.00;;;;;;;17.20;56.93;98726.72;5072571;28;20203;-83
2023/05/27 07:19:13;;;;;;;9.00;3.40;;;;;;;17.21;58.36;98738.25;5071373;28;20227;-76
2023/05/27 07:21:41;;;;;;;7.87;3.60;;;;;;;17.33;57.06;98730.03;5072083;28;20203;-77
2023/05/27 07:24:08;;;;;;;9.40;3.50;;;;;;;17.40;57.02;98730.38;5071702;28;20666;-78
2023/05/27 07:26:34;;;;;;;7.20;3.53;;;;;;;17.45;57.40;98744.19;5071937;28;20211;-77
2023/05/27 07:29:01;;;;;;;9.30;3.83;;;;;;;17.72;56.68;98726.56;5071372;28;20239;-77
2023/05/27 07:31:29;;;;;;;10.03;3.40;;;;;;;17.71;57.75;98737.38;5071031;28;20214;-76
2023/05/27 07:33:56;;;;;;;8.13;3.92;;;;;;;17.77;56.91;98731.50;5070231;28;20438;-77
2023/05/27 07:36:22;;;;;;;9.93;4.20;;;;;;;17.96;55.55;98708.31;5070216;28;20644;-76
2023/05/27 07:38:50;;;;;;;8.03;3.87;;;;;;;17.95;56.15;98714.66;5070362;28;20465;-77
2023/05/27 07:41:17;;;;;;;8.53;3.70;;;;;;;17.97;57.24;98728.75;5068659;28;20599;-77
2023/05/27 07:43:43;;;;;;;9.93;3.73;;;;;;;18.16;55.18;98710.03;5069127;28;20227;-77
2023/05/27 07:46:10;;;;;;;9.07;3.90;;;;;;;18.11;55.87;98714.13;5069096;28;20219;-76
2023/05/27 07:48:36;;;;;;;10.00;4.07;;;;;;;18.13;57.82;98742.44;5071296;28;20322;-77
2023/05/27 07:51:03;;;;;;;6.57;3.20;;;;;;;18.32;57.54;98734.47;5070031;28;20215;-76
2023/05/27 07:53:30;;;;;;;6.10;3.53;;;;;;;18.43;58.36;98737.00;5068834;28;20207;-77
2023/05/27 07:55:57;;;;;;;9.10;4.00;;;;;;;18.65;55.79;98709.94;5066349;28;20569;-77
2023/05/27 07:58:24;;;;;;;8.00;3.47;;;;;;;18.60;56.99;98727.44;5068663;28;20227;-75
2023/05/27 08:00:50;;;;;;;11.40;3.63;;;;;;;18.48;53.54;98673.16;5069015;28;20212;-76
2023/05/27 08:03:17;;;;;;;8.70;3.73;;;;;;;18.47;55.22;98692.06;5071147;28;20218;-75
2023/05/27 08:05:43;;;;;;;7.20;3.80;;;;;;;18.56;55.57;98697.41;5071239;28;20218;-75
2023/05/27 08:08:10;;;;;;;11.47;3.87;;;;;;;18.54;54.70;98699.38;5071452;28;20227;-75
2023/05/27 08:10:36;;;;;;;11.10;3.87;;;;;;;18.51;55.37;98696.13;5070625;28;20215;-75
2023/05/27 08:13:04;;;;;;;7.93;3.93;;;;;;;18.59;57.34;98715.88;5071157;28;20218;-75
2023/05/27 08:15:31;;;;;;;10.27;4.13;;;;;;;18.70;57.13;98713.03;5071309;28;20222;-76
2023/05/27 08:17:58;;;;;;;8.83;4.03;;;;;;;18.75;55.25;98691.19;5071322;28;20324;-76
2023/05/27 08:20:26;;;;;;;8.30;3.33;;;;;;;18.75;54.27;98672.44;5070022;28;20215;-75
2023/05/27 08:22:53;;;;;;;8.57;3.97;;;;;;;18.90;54.26;98682.56;5071332;28;20578;-80
2023/05/27 08:25:20;;;;;;;8.93;3.80;;;;;;;19.01;52.54;98655.59;5071319;28;20211;-79
2023/05/27 08:27:51;;;;;;;6.57;3.60;;;;;;;18.91;52.67;98659.31;5071303;28;20293;-80
2023/05/27 08:30:19;;;;;;;10.60;3.67;;;;;;;18.94;53.65;98667.91;5070342;28;20239;-79
2023/05/27 08:32:46;;;;;;;7.13;3.53;;;;;;;19.01;52.14;98644.06;5071315;28;20207;-80
2023/05/27 08:35:13;;;;;;;8.40;3.60;;;;;;;19.09;52.72;98647.66;5071251;28;20211;-80
2023/05/27 08:37:40;;;;;;;9.17;4.17;;;;;;;19.14;52.88;98648.06;5071459;28;20226;-79
2023/05/27 08:40:11;;;;;;;8.80;3.93;;;;;;;19.19;53.62;98661.88;5070560;28;20251;-79
2023/05/27 08:42:38;;;;;;;7.23;4.00;;;;;;;19.31;56.70;98689.38;5071211;28;20294;-80
2023/05/27 08:45:05;;;;;;;9.27;4.20;;;;;;;19.45;55.17;98664.78;5071955;28;20233;-79
2023/05/27 08:47:33;;;;;;;8.77;4.00;;;;;;;19.60;56.88;98693.63;5071594;28;20234;-80
2023/05/27 08:50:00;;;;;;;9.73;4.17;;;;;;;19.85;53.91;98655.38;5071001;28;20238;-79
2023/05/27 08:52:28;;;;;;;9.17;3.57;;;;;;;19.90;53.42;98657.59;5071203;28;20213;-80
2023/05/27 08:54:57;;;;;;;8.00;3.80;;;;;;;19.90;54.05;98662.97;5071433;28;20230;-79
2023/05/27 08:57:28;;;;;;;6.47;3.80;;;;;;;20.17;53.33;98647.69;5071480;28;20692;-79
2023/05/27 08:59:56;;;;;;;10.77;4.33;;;;;;;20.19;54.31;98667.16;5070778;28;20630;-79
2023/05/27 09:02:23;;;;;;;7.87;4.10;;;;;;;20.20;54.95;98663.50;5073046;28;20230;-80
2023/05/27 09:04:54;;;;;;;7.70;4.07;;;;;;;20.20;51.91;98636.66;5072447;28;20211;-80
2023/05/27 09:07:21;;;;;;;8.90;4.33;;;;;;;20.22;53.41;98650.75;5072487;28;20639;-80
2023/05/27 09:09:56;;;;;;;7.00;4.17;;;;;;;20.40;51.48;98626.56;5074289;28;20281;-80
2023/05/27 09:12:23;;;;;;;8.73;4.50;;;;;;;20.42;53.63;98649.59;5075700;28;20229;-79
2023/05/27 09:14:50;;;;;;;9.60;4.07;;;;;;;20.42;54.20;98654.97;5075617;28;20669;-80
2023/05/27 09:17:18;;;;;;;9.00;4.17;;;;;;;20.41;53.28;98650.59;5075759;28;20207;-80
2023/05/27 09:19:57;;;;;;;8.00;4.30;;;;;;;20.56;51.31;98615.97;5074175;28;20241;-80
2023/05/27 09:22:27;;;;;;;8.60;4.37;;;;;;;20.60;51.40;98612.81;5075060;28;20623;-80
2023/05/27 09:24:54;;;;;;;10.50;4.57;;;;;;;20.65;53.44;98640.03;5074900;28;20216;-80
2023/05/27 09:27:25;;;;;;;9.30;4.40;;;;;;;20.72;53.64;98641.09;5075262;28;20210;-80
2023/05/27 09:29:51;;;;;;;5.90;4.00;;;;;;;20.87;54.56;98652.97;5087861;22;20234;-77
2023/05/27 09:32:24;;;;;;;13.17;4.57;;;;;;;21.05;52.45;98623.38;5074008;28;20204;-77
2023/05/27 09:34:51;;;;;;;9.10;4.53;;;;;;;21.04;49.93;98590.28;5074035;28;20253;-76
2023/05/27 09:37:18;;;;;;;7.23;4.33;;;;;;;21.07;53.73;98637.50;5074239;28;20235;-76
2023/05/27 09:39:48;;;;;;;8.67;4.47;;;;;;;21.10;52.20;98621.88;5073221;28;20289;-76
2023/05/27 09:42:14;;;;;;;12.17;4.77;;;;;;;21.07;51.97;98616.84;5074045;28;20221;-76
2023/05/27 09:44:41;;;;;;;9.90;4.10;;;;;;;21.03;50.80;98602.03;5073969;28;20210;-76
2023/05/27 09:47:09;;;;;;;9.53;4.47;;;;;;;21.05;51.95;98605.44;5073915;28;20249;-76
2023/05/27 09:49:38;;;;;;;8.13;4.57;;;;;;;21.22;52.43;98619.78;5073234;28;20227;-76
2023/05/27 09:52:06;;;;;;;7.87;4.37;;;;;;;21.27;52.18;98618.28;5073932;28;20222;-76
2023/05/27 09:54:33;;;;;;;9.23;4.67;;;;;;;21.34;53.54;98629.25;5073903;28;20265;-76
2023/05/27 09:57:01;;;;;;;7.93;4.33;;;;;;;21.53;51.02;98602.09;5073768;28;20677;-77
2023/05/27 09:59:27;;;;;;;8.60;4.53;;;;;;;21.72;49.94;98586.56;5072868;28;20540;-76
2023/05/27 10:01:55;;;;;;;7.20;4.37;;;;;;;21.75;52.35;98612.31;5073540;28;20310;-76
2023/05/27 10:04:22;;;;;;;7.30;4.47;;;;;;;21.88;53.68;98624.25;5073726;28;20207;-77
2023/05/27 10:06:48;;;;;;;12.30;4.90;;;;;;;22.01;51.33;98603.09;5073371;28;20639;-77
2023/05/27 10:09:16;;;;;;;6.03;4.37;;;;;;;21.98;50.87;98592.66;5072681;28;20304;-77
2023/05/27 10:11:44;;;;;;;8.87;4.70;;;;;;;22.09;47.89;98551.97;5073512;28;20583;-76
2023/05/27 10:14:12;;;;;;;9.43;4.63;;;;;;;22.05;49.91;98576.66;5073165;28;20215;-77
2023/05/27 10:16:39;;;;;;;10.03;4.27;;;;;;;22.02;50.44;98583.25;5073267;28;20302;-76
2023/05/27 10:19:11;;;;;;;7.93;4.13;;;;;;;22.14;51.94;98600.75;5073159;28;20224;-76
2023/05/27 10:21:44;;;;;;;6.63;4.13;;;;;;;22.24;49.80;98563.72;5073217;28;20302;-76
2023/05/27 10:24:12;;;;;;;7.13;4.80;;;;;;;22.32;49.65;98570.97;5073217;28;20673;-77
2023/05/27 10:26:40;;;;;;;7.80;4.30;;;;;;;22.32;51.99;98595.22;5073099;28;20284;-76
2023/05/27 10:29:08;;;;;;;8.27;4.70;;;;;;;22.41;51.45;98584.28;5072348;28;20239;-77
2023/05/27 10:31:37;;;;;;;6.17;4.70;;;;;;;22.46;50.83;98579.25;5073456;28;20257;-76
2023/05/27 10:34:06;;;;;;;6.73;4.70;;;;;;;22.57;52.48;98602.31;5073124;28;20598;-76
2023/05/27 10:36:33;;;;;;;7.57;4.50;;;;;;;22.72;51.64;98587.13;5072756;28;20207;-77
2023/05/27 10:39:05;;;;;;;9.90;5.00;;;;;;;22.71;47.87;98547.72;5072917;28;20635;-76
2023/05/27 10:41:42;;;;;;;8.70;4.87;;;;;;;22.49;51.27;98581.59;5072253;28;20213;-76
2023/05/27 10:44:10;;;;;;;7.87;4.43;;;;;;;22.47;46.43;98516.28;5072949;28;20407;-76
2023/05/27 10:46:42;;;;;;;6.97;4.20;;;;;;;22.50;46.89;98512.41;5072770;28;20234;-76
2023/05/27 10:49:15;;;;;;;6.20;4.80;;;;;;;22.63;51.14;98570.16;5071938;28;20264;-76
2023/05/27 10:51:43;;;;;;;7.00;4.70;;;;;;;22.86;51.24;98565.69;5072653;28;20215;-77
2023/05/27 10:54:19;;;;;;;7.40;4.93;;;;;;;22.89;49.05;98546.50;5072530;28;20215;-76
2023/05/27 10:56:50;;;;;;;9.07;4.67;;;;;;;22.99;50.08;98557.09;5072758;28;20217;-76
2023/05/27 10:59:21;;;;;;;5.77;4.37;;;;;;;23.03;50.69;98561.94;5071892;28;20235;-76
2023/05/27 11:01:52;;;;;;;7.27;5.00;;;;;;;23.17;49.63;98545.06;5072458;28;20264;-77
2023/05/27 11:04:18;;;;;;;6.73;4.47;;;;;;;23.20;49.84;98546.59;5072282;28;20207;-76
2023/05/27 11:06:57;;;;;;;7.27;4.50;;;;;;;23.40;43.74;98469.63;5072502;28;20606;-77
2023/05/27 11:09:24;;;;;;;7.37;4.63;;;;;;;23.41;47.66;98526.09;5071631;28;20651;-76
2023/05/27 11:11:50;;;;;;;9.50;4.80;;;;;;;23.28;49.04;98535.78;5072370;28;20208;-77
2023/05/27 11:14:19;;;;;;;5.53;4.47;;;;;;;23.40;50.13;98554.06;5072348;28;20212;-75
2023/05/27 11:16:47;;;;;;;6.90;4.70;;;;;;;23.50;52.57;98573.59;5072161;28;20677;-75
2023/05/27 11:19:15;;;;;;;9.10;4.90;;;;;;;23.57;48.56;98531.41;5071441;28;20220;-75
2023/05/27 11:21:45;;;;;;;7.77;4.90;;;;;;;23.60;44.39;98478.94;5071790;28;20592;-75
2023/05/27 11:24:15;;;;;;;7.87;4.50;;;;;;;23.46;43.59;98458.13;5072179;28;20207;-75
2023/05/27 11:26:43;;;;;;;7.27;4.27;;;;;;;23.36;46.06;98485.28;5071983;28;20207;-75
2023/05/27 11:29:10;;;;;;;8.53;4.90;;;;;;;23.51;48.60;98526.72;5070901;28;20238;-75
2023/05/27 11:31:40;;;;;;;7.80;4.57;;;;;;;23.65;48.67;98520.53;5071690;28;20211;-75
2023/05/27 11:34:13;;;;;;;6.17;4.40;;;;;;;23.73;48.78;98520.50;5071942;28;20231;-74